Time;durP1;ratioP1;P1;durP2;ratioP2;P2;SDS_P1;SDS_P2;PMS_P1;PMS_P2;Temp;Humidity;BMP_temperature;BMP_pressure;BME280_temperature;BME280_humidity;BME280_pressure;Samples;Min_cycle;Max_cycle;Signal;HPM_P1;HPM_P2
2021/04/12 00:04:49;;;;;;;5.50;1.98;;;3.30;99.90;;;;;;6754647;87;20249;-76
2021/04/12 00:14:58;;;;;;;3.80;1.80;;;3.20;99.90;;;;;;6769107;87;20280;-77
2021/04/12 00:25:50;;;;;;;2.92;1.65;;;3.20;99.90;;;;;;6757257;88;20186;-76
2021/04/12 00:36:01;;;;;;;6.82;1.87;;;3.00;99.90;;;;;;6747785;88;20203;-76
2021/04/12 00:46:28;;;;;;;3.80;1.80;;;2.90;99.90;;;;;;6737864;88;20290;-76
2021/04/12 00:56:39;;;;;;;6.10;2.25;;;2.90;99.90;;;;;;6740122;88;20186;-76
2021/04/12 01:07:05;;;;;;;6.15;2.17;;;2.70;99.90;;;;;;6738855;88;20705;-76
2021/04/12 01:17:25;;;;;;;5.45;1.92;;;2.70;99.90;;;;;;6738457;88;20612;-76
2021/04/12 01:28:05;;;;;;;6.30;2.53;;;2.60;99.90;;;;;;6736701;88;20217;-76
2021/04/12 01:38:25;;;;;;;7.53;2.35;;;2.50;99.90;;;;;;6737996;88;20193;-77
2021/04/12 01:48:38;;;;;;;4.18;2.35;;;2.50;99.90;;;;;;6737757;88;20764;-76
2021/04/12 01:58:56;;;;;;;7.37;2.50;;;2.40;99.90;;;;;;6737569;88;20638;-76
2021/04/12 02:09:12;;;;;;;5.95;2.60;;;2.40;99.90;;;;;;6737732;88;20197;-77
2021/04/12 02:19:21;;;;;;;6.87;3.10;;;2.20;99.90;;;;;;6736971;88;20227;-76
2021/04/12 02:29:27;;;;;;;6.70;3.50;;;2.20;99.90;;;;;;6737275;88;20176;-76
2021/04/12 02:40:06;;;;;;;10.57;3.60;;;2.10;99.90;;;;;;6738679;88;20308;-76
2021/04/12 02:50:33;;;;;;;10.57;3.65;;;2.10;99.90;;;;;;6739988;88;20673;-77
2021/04/12 03:00:40;;;;;;;7.60;3.40;;;2.00;99.90;;;;;;6746413;88;20195;-77
2021/04/12 03:10:46;;;;;;;9.85;4.15;;;1.90;99.90;;;;;;6757558;88;20200;-75
2021/04/12 03:21:15;;;;;;;12.07;4.05;;;1.80;99.90;;;;;;6755360;88;20229;-76
2021/04/12 03:31:45;;;;;;;10.93;5.03;;;1.80;99.90;;;;;;6755311;87;20185;-75
2021/04/12 03:42:14;;;;;;;9.98;3.90;;;1.80;99.90;;;;;;6751375;88;20192;-77
2021/04/12 03:52:46;;;;;;;9.25;3.12;;;1.70;99.90;;;;;;6748305;88;20173;-76
2021/04/12 04:03:07;;;;;;;12.15;3.12;;;1.80;99.90;;;;;;6750595;87;20249;-76
2021/04/12 04:13:33;;;;;;;6.78;2.92;;;1.80;99.90;;;;;;6755633;88;20819;-75
2021/04/12 04:24:19;;;;;;;8.40;3.05;;;1.70;99.90;;;;;;6749668;88;20172;-75
2021/04/12 04:34:29;;;;;;;8.70;3.25;;;1.70;99.90;;;;;;6745319;88;20188;-75
2021/04/12 04:45:07;;;;;;;8.15;3.33;;;1.70;99.90;;;;;;6749408;88;20190;-75
2021/04/12 04:55:34;;;;;;;10.68;3.53;;;1.70;99.90;;;;;;6754319;88;20197;-75
2021/04/12 05:05:57;;;;;;;12.00;4.60;;;1.50;99.90;;;;;;6742101;88;20169;-75
2021/04/12 05:16:20;;;;;;;10.65;3.95;;;1.50;99.90;;;;;;6738041;88;20225;-77
2021/04/12 05:27:09;;;;;;;9.27;4.30;;;1.50;99.90;;;;;;6737206;88;20270;-75
2021/04/12 05:37:21;;;;;;;9.45;4.50;;;1.60;99.90;;;;;;6744909;88;20679;-75
2021/04/12 05:47:24;;;;;;;9.73;4.50;;;1.70;99.90;;;;;;6741694;88;20241;-76
2021/04/12 05:57:43;;;;;;;8.85;5.05;;;1.70;99.90;;;;;;6748370;88;20570;-75
2021/04/12 06:08:01;;;;;;;10.50;4.72;;;1.90;99.90;;;;;;6737903;88;20201;-76
2021/04/12 06:18:39;;;;;;;9.13;4.65;;;2.00;99.90;;;;;;6741811;88;20208;-75
2021/04/12 06:29:01;;;;;;;8.77;4.82;;;2.00;99.90;;;;;;6742163;88;20200;-77
2021/04/12 06:39:31;;;;;;;12.23;5.40;;;2.10;99.90;;;;;;6755197;88;20215;-78
2021/04/12 06:49:47;;;;;;;10.38;5.28;;;2.70;99.90;;;;;;6739884;88;20282;-79
2021/04/12 07:00:06;;;;;;;10.43;5.50;;;3.50;99.90;;;;;;6743659;88;20243;-78
2021/04/12 07:10:27;;;;;;;12.07;5.15;;;4.00;99.90;;;;;;6744558;88;20219;-78
2021/04/12 07:20:43;;;;;;;8.65;5.05;;;4.80;99.90;;;;;;6745264;88;20240;-78
2021/04/12 07:30:46;;;;;;;11.23;4.70;;;4.80;99.90;;;;;;6755573;88;20184;-77
2021/04/12 07:41:26;;;;;;;7.85;4.72;;;4.60;99.90;;;;;;6758022;88;20247;-77
2021/04/12 07:51:59;;;;;;;10.35;4.80;;;4.50;99.90;;;;;;6759242;88;20196;-78
2021/04/12 08:02:27;;;;;;;9.05;4.40;;;5.40;99.90;;;;;;6753519;88;20310;-79
2021/04/12 08:13:14;;;;;;;8.38;4.12;;;5.80;99.90;;;;;;6756796;88;20200;-78
2021/04/12 08:23:50;;;;;;;9.13;3.97;;;5.90;99.90;;;;;;6760101;88;20194;-78
2021/04/12 08:34:24;;;;;;;7.78;4.05;;;6.30;99.90;;;;;;6740806;88;20239;-78
2021/04/12 08:45:04;;;;;;;6.25;3.83;;;6.00;99.90;;;;;;6741528;88;20723;-78
2021/04/12 08:55:23;;;;;;;5.60;3.40;;;6.80;99.90;;;;;;6739769;88;20189;-78
2021/04/12 09:05:47;;;;;;;4.55;1.83;;;4.80;99.90;;;;;;6733930;88;20194;-78
2021/04/12 09:16:07;;;;;;;4.07;1.60;;;4.70;99.90;;;;;;6734121;88;20201;-78
2021/04/12 09:26:28;;;;;;;2.78;0.50;;;6.60;99.90;;;;;;6736133;88;20247;-78
2021/04/12 09:37:02;;;;;;;2.45;0.77;;;7.30;99.90;;;;;;6737978;88;20204;-78
2021/04/12 09:47:40;;;;;;;5.82;2.60;;;8.00;99.90;;;;;;6737917;88;20198;-78
2021/04/12 09:58:14;;;;;;;7.70;3.95;;;7.40;99.90;;;;;;6737547;88;20188;-77
2021/04/12 10:08:33;;;;;;;6.60;3.95;;;6.50;99.90;;;;;;6735843;88;20241;-77
2021/04/12 10:18:42;;;;;;;4.95;2.83;;;7.20;99.90;;;;;;6750487;88;20648;-77
2021/04/12 10:29:02;;;;;;;4.55;2.80;;;8.40;99.90;;;;;;6750178;88;20222;-78
2021/04/12 10:39:11;;;;;;;1.40;0.80;;;8.80;99.90;;;;;;6736987;88;20276;-78
2021/04/12 10:49:28;;;;;;;5.43;1.50;;;7.40;99.90;;;;;;6738129;88;20192;-78
2021/04/12 10:59:52;;;;;;;2.72;1.60;;;6.10;99.90;;;;;;6736847;88;20209;-77
2021/04/12 11:10:09;;;;;;;3.00;2.00;;;6.40;99.90;;;;;;6764981;88;20701;-78
2021/04/12 11:20:24;;;;;;;4.35;1.77;;;8.90;99.90;;;;;;6746353;88;20667;-76
2021/04/12 11:30:28;;;;;;;6.15;2.10;;;8.40;99.90;;;;;;6765434;87;20202;-76
2021/04/12 11:40:33;;;;;;;2.30;1.50;;;9.90;99.90;;;;;;6751146;87;20172;-75
2021/04/12 11:50:37;;;;;;;4.63;2.00;;;10.90;99.90;;;;;;6739071;88;20196;-76
2021/04/12 12:00:52;;;;;;;3.37;2.08;;;11.20;99.90;;;;;;6738969;88;20939;-78
2021/04/12 12:11:13;;;;;;;5.13;1.33;;;11.70;95.60;;;;;;6738429;88;20222;-75
2021/04/12 12:21:37;;;;;;;2.85;1.33;;;10.10;93.80;;;;;;6755708;88;20173;-75
2021/04/12 12:32:15;;;;;;;3.85;1.40;;;9.90;94.60;;;;;;6755192;88;20230;-75
2021/04/12 12:42:21;;;;;;;2.65;1.30;;;10.70;99.90;;;;;;6751808;88;20167;-75
2021/04/12 12:52:30;;;;;;;;;;;8.80;99.90;;;;;;6756550;88;20721;-76
2021/04/12 13:02:36;;;;;;;3.30;0.70;;;7.30;99.90;;;;;;6758118;88;20126;-76
2021/04/12 13:12:40;;;;;;;3.67;0.90;;;7.10;99.90;;;;;;6755873;88;20167;-75
2021/04/12 13:22:48;;;;;;;3.85;0.90;;;8.00;99.90;;;;;;6755192;88;20320;-76
2021/04/12 13:33:03;;;;;;;2.08;1.20;;;10.00;97.10;;;;;;6753222;88;20232;-79
2021/04/12 13:43:08;;;;;;;2.40;1.52;;;9.10;98.50;;;;;;6738623;88;20226;-78
2021/04/12 13:53:16;;;;;;;2.83;1.62;;;7.50;99.90;;;;;;6744285;88;20160;-76
2021/04/12 14:03:39;;;;;;;4.15;1.55;;;7.80;99.90;;;;;;6755331;88;20188;-76
2021/04/12 14:13:47;;;;;;;2.40;1.30;;;7.50;99.90;;;;;;6739393;88;20273;-78
2021/04/12 14:23:56;;;;;;;1.60;1.17;;;7.20;99.90;;;;;;6739719;88;20198;-78
2021/04/12 14:34:08;;;;;;;2.62;1.08;;;7.00;99.90;;;;;;6738735;88;20261;-75
2021/04/12 14:44:13;;;;;;;2.60;1.23;;;7.90;99.90;;;;;;6741991;88;20193;-76
2021/04/12 14:54:24;;;;;;;2.33;1.30;;;9.00;99.90;;;;;;6743342;88;20218;-77
2021/04/12 15:04:30;;;;;;;2.55;1.50;;;7.80;99.90;;;;;;6743831;88;20723;-77
2021/04/12 15:14:39;;;;;;;2.42;1.50;;;8.00;99.90;;;;;;6741973;88;20194;-76
2021/04/12 15:24:46;;;;;;;3.00;1.30;;;8.10;99.90;;;;;;6741790;88;20271;-76
2021/04/12 15:34:53;;;;;;;2.60;1.40;;;7.70;99.90;;;;;;6739810;88;20719;-77
2021/04/12 15:45:04;;;;;;;3.47;1.40;;;7.50;99.90;;;;;;6741944;88;20307;-77
2021/04/12 15:55:41;;;;;;;4.47;1.40;;;8.00;99.10;;;;;;6741060;88;20201;-77
2021/04/12 16:06:02;;;;;;;2.72;1.12;;;8.10;99.80;;;;;;6738101;88;20275;-77
2021/04/12 16:16:08;;;;;;;2.08;1.05;;;8.20;98.20;;;;;;6729734;88;20248;-79
2021/04/12 16:26:27;;;;;;;3.20;1.67;;;8.30;96.60;;;;;;6739724;88;20331;-77
2021/04/12 16:36:40;;;;;;;1.77;0.90;;;8.10;95.00;;;;;;6745411;88;20210;-78
2021/04/12 16:46:45;;;;;;;2.20;1.00;;;8.00;93.20;;;;;;6749725;88;20193;-77
2021/04/12 16:56:49;;;;;;;5.25;1.70;;;7.80;93.40;;;;;;6762213;88;20197;-76
2021/04/12 17:07:05;;;;;;;3.12;1.10;;;7.80;95.30;;;;;;6755256;88;20202;-77
2021/04/12 17:17:24;;;;;;;4.17;1.10;;;7.80;95.50;;;;;;6753984;88;20256;-77
2021/04/12 17:27:29;;;;;;;2.03;1.20;;;7.20;94.80;;;;;;6746737;88;20181;-79
2021/04/12 17:37:33;;;;;;;6.07;2.10;;;6.90;97.90;;;;;;6759444;88;20219;-78
2021/04/12 17:47:46;;;;;;;4.97;1.70;;;6.60;99.90;;;;;;6759503;88;20324;-78
2021/04/12 17:58:13;;;;;;;3.50;1.70;;;6.20;99.90;;;;;;6746816;88;20218;-76
2021/04/12 18:08:32;;;;;;;4.22;1.92;;;5.80;99.90;;;;;;6740613;88;20223;-78
2021/04/12 18:18:53;;;;;;;3.53;2.10;;;5.10;99.90;;;;;;6747908;88;20239;-78
2021/04/12 18:28:58;;;;;;;2.70;1.90;;;4.90;99.90;;;;;;6751307;88;20196;-78
2021/04/12 18:39:08;;;;;;;4.10;2.30;;;4.70;99.90;;;;;;6747641;88;20307;-77
2021/04/12 18:49:22;;;;;;;6.05;2.65;;;4.40;99.90;;;;;;6745207;88;20200;-77
2021/04/12 18:59:41;;;;;;;4.30;2.60;;;4.20;99.90;;;;;;6734122;88;20343;-80
2021/04/12 19:10:15;;;;;;;4.40;2.50;;;4.00;99.90;;;;;;6737247;88;20262;-79
2021/04/12 19:20:39;;;;;;;5.55;2.90;;;3.80;99.90;;;;;;6732812;88;20236;-80
2021/04/12 19:31:08;;;;;;;4.57;2.62;;;3.70;99.90;;;;;;6742357;87;20261;-80
2021/04/12 19:41:18;;;;;;;4.72;2.97;;;3.40;99.90;;;;;;6777717;87;20204;-79
2021/04/12 19:51:33;;;;;;;6.60;3.62;;;3.10;99.90;;;;;;6778205;87;20187;-82
2021/04/12 20:01:46;;;;;;;7.85;4.45;;;3.00;99.90;;;;;;6746073;88;20189;-78
2021/04/12 20:11:53;;;;;;;7.12;3.97;;;2.90;99.90;;;;;;6745270;88;20205;-79
2021/04/12 20:21:53;;;;;;;8.10;4.93;;;2.90;99.90;;;;;;6743852;88;20228;-79
2021/04/12 20:32:18;;;;;;;9.75;5.05;;;2.80;99.90;;;;;;6743274;88;20334;-80
2021/04/12 20:42:56;;;;;;;8.57;5.10;;;2.60;99.90;;;;;;6742373;88;20889;-78
2021/04/12 20:53:21;;;;;;;8.30;5.45;;;2.50;99.90;;;;;;6743972;88;20202;-78
2021/04/12 21:03:33;;;;;;;11.25;6.10;;;2.50;99.90;;;;;;6743543;88;20205;-78
2021/04/12 21:13:40;;;;;;;9.90;5.72;;;2.60;99.90;;;;;;6743574;88;20224;-78
2021/04/12 21:23:46;;;;;;;10.57;6.07;;;2.50;99.90;;;;;;6746954;88;20202;-78
2021/04/12 21:33:50;;;;;;;10.57;5.60;;;2.50;99.90;;;;;;6746691;88;20200;-77
2021/04/12 21:44:06;;;;;;;9.80;6.00;;;2.40;99.90;;;;;;6738426;88;20735;-77
2021/04/12 21:54:39;;;;;;;13.77;8.17;;;2.30;99.90;;;;;;6747028;88;20287;-77
2021/04/12 22:04:48;;;;;;;12.15;6.00;;;2.20;99.90;;;;;;6743972;88;20200;-77
2021/04/12 22:14:54;;;;;;;11.00;6.30;;;2.00;99.90;;;;;;6749020;88;20291;-78
2021/04/12 22:25:04;;;;;;;12.37;6.17;;;1.90;99.90;;;;;;6751954;88;20309;-77
2021/04/12 22:35:38;;;;;;;10.98;6.32;;;1.80;99.90;;;;;;6751417;88;20532;-80
2021/04/12 22:45:38;;;;;;;12.68;6.55;;;1.60;99.90;;;;;;6750334;88;20182;-77
2021/04/12 22:55:41;;;;;;;13.27;6.78;;;1.60;99.90;;;;;;6745626;88;20208;-77
2021/04/12 23:05:46;;;;;;;11.70;6.60;;;1.50;99.90;;;;;;6747297;88;21005;-77
2021/04/12 23:15:47;;;;;;;12.57;6.68;;;1.30;99.90;;;;;;6744940;88;20223;-77
2021/04/12 23:25:51;;;;;;;15.43;7.12;;;1.30;99.90;;;;;;6745768;88;20712;-77
2021/04/12 23:35:58;;;;;;;16.80;9.40;;;1.20;99.90;;;;;;6745717;88;20238;-76
2021/04/12 23:46:06;;;;;;;16.92;8.32;;;1.20;99.90;;;;;;6745963;88;20305;-76
2021/04/12 23:56:08;;;;;;;14.45;7.57;;;1.00;99.90;;;;;;6740548;88;20201;-78
